Weather at Rendani Airport

Public forecast

Using degrees Celsius for public forecast. Weather courtesy of forecast.io.

Closest aviation weather report (METAR) to Rendani Airport

Closest report is Frans Kaisiepo Airport, 124.9 nm (231.3 km) E.

2023/09/23 13:30 (retrieved 50 minutes ago)

WABB 231330Z 00000KT 9999 SCT018 26/24 Q1009 NOSIG

Closest aviation forecast (TAF) to Rendani Airport

Closest forecast is Frans Kaisiepo Airport, 124.9 nm (231.3 km) E.

2023/09/23 12:09 (retrieved 2 hours ago)

TAF WABB 231100Z 2312/2418 31006KT 9999 SCT018 PROB40 TEMPO 2318/2321 5000 RA BECMG 2322/2401 04003KT